PWSweather.com
Personal Weather Stations
Station Observations
KJ4AJP
Beautiful Downtown Gardner, Martin, TN 38237

Beautiful Downtown GardnerMartin, TN 38237

Lat: 36.358, Lon: -88.8994

Elevation: 384.3

Station Type: TP1080WC

http://weather.mambm.com/

High Low Average
Temperature 39.7°F4.3°C 19.9°F-6.7°C 29.4°F-1.4°C
Dew Point 29.4°F-1.4°C 19.2°F-7.1°C 24.0°F-4.4°C
Winds 4.5 mph 7.2 kmh Calm Calm 1.0 mph S1.6 kmh S
Wind Gusts 14.5 mph23.3 kmh -- 4.0 mph6.4 kmh
Humidity 99% 62% 81%
Pressure 30.54 in1034.2 mb 30.21 in1023.0 mb -
Precipitation 0.00 in0.0 mm - -
Hour Temp Dew Point Humidity Winds Wind Gusts Pressure Precip Precip Rate Daily Precip Total
12:00 AM 29.1°F-1.6°C 23.4°F-4.8°C 79% 4.5 mph N7.2 kmh N 14.5 mph23.3 kmh 30.48 in1032.2 mb 0.00 in0.0 mm 0.00 in0.0 mm 0.00 in0.0 mm
12:15 AM 28.6°F-1.9°C 23.2°F-4.9°C 80% 1.6 mph N2.6 kmh N 7.6 mph12.2 kmh 30.47 in1031.8 mb 0.00 in0.0 mm 0.00 in0.0 mm 0.00 in0.0 mm
12:30 AM 28.0°F-2.2°C 23.0°F-5.0°C 81% 1.6 mph N2.6 kmh N 7.6 mph12.2 kmh 30.47 in1031.8 mb 0.00 in0.0 mm 0.00 in0.0 mm 0.00 in0.0 mm
12:45 AM 27.5°F-2.5°C 22.5°F-5.3°C 81% 1.6 mph N2.6 kmh N 6.9 mph11.1 kmh 30.48 in1032.2 mb 0.00 in0.0 mm 0.00 in0.0 mm 0.00 in0.0 mm
01:00 AM 27.1°F-2.7°C 22.4°F-5.3°C 82% 1.6 mph N2.6 kmh N 6.0 mph9.7 kmh 30.47 in1031.8 mb 0.00 in0.0 mm 0.00 in0.0 mm 0.00 in0.0 mm
01:15 AM 26.4°F-3.1°C 21.7°F-5.7°C 82% 0.7 mph NNW1.1 kmh NNW 3.1 mph5.0 kmh 30.48 in1032.2 mb 0.00 in0.0 mm 0.00 in0.0 mm 0.00 in0.0 mm
01:30 AM 25.7°F-3.5°C 21.6°F-5.8°C 84% Calm Calm 1.6 mph2.6 kmh 30.48 in1032.2 mb 0.00 in0.0 mm 0.00 in0.0 mm 0.00 in0.0 mm
01:45 AM 24.8°F-4.0°C 21.0°F-6.1°C 85% Calm Calm -- 30.47 in1031.8 mb 0.00 in0.0 mm 0.00 in0.0 mm 0.00 in0.0 mm
02:00 AM 23.9°F-4.5°C 20.6°F-6.3°C 87% Calm Calm 0.7 mph1.1 kmh 30.47 in1031.8 mb 0.00 in0.0 mm 0.00 in0.0 mm 0.00 in0.0 mm
02:15 AM 23.5°F-4.7°C 20.5°F-6.4°C 88% Calm Calm 0.7 mph1.1 kmh 30.47 in1031.8 mb 0.00 in0.0 mm 0.00 in0.0 mm 0.00 in0.0 mm
02:30 AM 23.0°F-5.0°C 20.3°F-6.5°C 89% Calm Calm -- 30.48 in1032.2 mb 0.00 in0.0 mm 0.00 in0.0 mm 0.00 in0.0 mm
02:45 AM 22.3°F-5.4°C 19.8°F-6.8°C 90% Calm Calm -- 30.48 in1032.2 mb 0.00 in0.0 mm 0.00 in0.0 mm 0.00 in0.0 mm
03:00 AM 22.1°F-5.5°C 19.9°F-6.7°C 91% Calm Calm 0.7 mph1.1 kmh 30.47 in1031.8 mb 0.00 in0.0 mm 0.00 in0.0 mm 0.00 in0.0 mm
03:15 AM 21.7°F-5.7°C 19.6°F-6.9°C 91% Calm Calm -- 30.47 in1031.8 mb 0.00 in0.0 mm 0.00 in0.0 mm 0.00 in0.0 mm
03:30 AM 21.2°F-6.0°C 19.3°F-7.1°C 92% Calm Calm 0.7 mph1.1 kmh 30.48 in1032.2 mb 0.00 in0.0 mm 0.00 in0.0 mm 0.00 in0.0 mm
03:45 AM 21.0°F-6.1°C 19.3°F-7.1°C 93% Calm Calm -- 30.47 in1031.8 mb 0.00 in0.0 mm 0.00 in0.0 mm 0.00 in0.0 mm
04:00 AM 20.7°F-6.3°C 19.2°F-7.1°C 94% Calm Calm -- 30.46 in1031.5 mb 0.00 in0.0 mm 0.00 in0.0 mm 0.00 in0.0 mm
04:15 AM 20.7°F-6.3°C 19.5°F-6.9°C 95% Calm Calm 1.6 mph2.6 kmh 30.46 in1031.5 mb 0.00 in0.0 mm 0.00 in0.0 mm 0.00 in0.0 mm
04:30 AM 21.0°F-6.1°C 19.8°F-6.8°C 95% 1.6 mph N2.6 kmh N 3.1 mph5.0 kmh 30.46 in1031.5 mb 0.00 in0.0 mm 0.00 in0.0 mm 0.00 in0.0 mm
04:45 AM 21.2°F-6.0°C 20.3°F-6.5°C 96% 0.7 mph N1.1 kmh N 3.8 mph6.1 kmh 30.45 in1031.2 mb 0.00 in0.0 mm 0.00 in0.0 mm 0.00 in0.0 mm
05:00 AM 20.8°F-6.2°C 19.7°F-6.8°C 95% 0.7 mph N1.1 kmh N 4.5 mph7.2 kmh 30.47 in1031.8 mb 0.00 in0.0 mm 0.00 in0.0 mm 0.00 in0.0 mm
05:15 AM 20.8°F-6.2°C 19.9°F-6.7°C 96% Calm Calm 1.6 mph2.6 kmh 30.49 in1032.5 mb 0.00 in0.0 mm 0.00 in0.0 mm 0.00 in0.0 mm
05:30 AM 20.7°F-6.3°C 19.7°F-6.8°C 96% Calm Calm 2.2 mph3.5 kmh 30.49 in1032.5 mb 0.00 in0.0 mm 0.00 in0.0 mm 0.00 in0.0 mm
05:45 AM 20.8°F-6.2°C 19.9°F-6.7°C 96% Calm Calm 1.6 mph2.6 kmh 30.50 in1032.8 mb 0.00 in0.0 mm 0.00 in0.0 mm 0.00 in0.0 mm
06:00 AM 20.7°F-6.3°C 19.7°F-6.8°C 96% Calm Calm 2.2 mph3.5 kmh 30.50 in1032.8 mb 0.00 in0.0 mm 0.00 in0.0 mm 0.00 in0.0 mm
06:15 AM 20.3°F-6.5°C 19.4°F-7.0°C 96% Calm Calm 0.7 mph1.1 kmh 30.51 in1033.2 mb 0.00 in0.0 mm 0.00 in0.0 mm 0.00 in0.0 mm
06:30 AM 20.3°F-6.5°C 19.6°F-6.9°C 97% Calm Calm 1.6 mph2.6 kmh 30.52 in1033.5 mb 0.00 in0.0 mm 0.00 in0.0 mm 0.00 in0.0 mm
06:45 AM 20.3°F-6.5°C 19.6°F-6.9°C 97% Calm Calm 0.7 mph1.1 kmh 30.51 in1033.2 mb 0.00 in0.0 mm 0.00 in0.0 mm 0.00 in0.0 mm
07:00 AM 20.1°F-6.6°C 19.4°F-7.0°C 97% Calm Calm 1.6 mph2.6 kmh 30.52 in1033.5 mb 0.00 in0.0 mm 0.00 in0.0 mm 0.00 in0.0 mm
07:15 AM 19.9°F-6.7°C 19.3°F-7.1°C 97% Calm Calm 0.7 mph1.1 kmh 30.52 in1033.5 mb 0.00 in0.0 mm 0.00 in0.0 mm 0.00 in0.0 mm
07:30 AM 20.3°F-6.5°C 19.9°F-6.7°C 98% Calm Calm 3.1 mph5.0 kmh 30.52 in1033.5 mb 0.00 in0.0 mm 0.00 in0.0 mm 0.00 in0.0 mm
07:45 AM 21.7°F-5.7°C 21.5°F-5.8°C 99% 3.1 mph N5.0 kmh N 5.4 mph8.7 kmh 30.51 in1033.2 mb 0.00 in0.0 mm 0.00 in0.0 mm 0.00 in0.0 mm
08:00 AM 23.2°F-4.9°C 22.7°F-5.2°C 98% 1.6 mph N2.6 kmh N 4.5 mph7.2 kmh 30.52 in1033.5 mb 0.00 in0.0 mm 0.00 in0.0 mm 0.00 in0.0 mm
08:15 AM 24.4°F-4.2°C 23.7°F-4.6°C 97% 0.7 mph N1.1 kmh N 3.8 mph6.1 kmh 30.52 in1033.5 mb 0.00 in0.0 mm 0.00 in0.0 mm 0.00 in0.0 mm
08:30 AM 26.1°F-3.3°C 25.1°F-3.8°C 96% 2.2 mph N3.5 kmh N 5.4 mph8.7 kmh 30.52 in1033.5 mb 0.00 in0.0 mm 0.00 in0.0 mm 0.00 in0.0 mm
08:45 AM 27.5°F-2.5°C 26.0°F-3.3°C 94% 3.1 mph NNW5.0 kmh NNW 5.4 mph8.7 kmh 30.53 in1033.9 mb 0.00 in0.0 mm 0.00 in0.0 mm 0.00 in0.0 mm
09:00 AM 28.2°F-2.1°C 26.2°F-3.2°C 92% 1.6 mph N2.6 kmh N 5.4 mph8.7 kmh 30.52 in1033.5 mb 0.00 in0.0 mm 0.00 in0.0 mm 0.00 in0.0 mm
09:15 AM 29.3°F-1.5°C 26.7°F-2.9°C 90% 3.1 mph N5.0 kmh N 4.5 mph7.2 kmh 30.53 in1033.9 mb 0.00 in0.0 mm 0.00 in0.0 mm 0.00 in0.0 mm
09:30 AM 30.4°F-0.9°C 27.3°F-2.6°C 88% 4.5 mph NNW7.2 kmh NNW 6.0 mph9.7 kmh 30.54 in1034.2 mb 0.00 in0.0 mm 0.00 in0.0 mm 0.00 in0.0 mm
09:45 AM 31.1°F-0.5°C 27.1°F-2.7°C 85% 1.6 mph NE2.6 kmh NE 5.4 mph8.7 kmh 30.54 in1034.2 mb 0.00 in0.0 mm 0.00 in0.0 mm 0.00 in0.0 mm
10:00 AM 31.6°F-0.2°C 27.1°F-2.7°C 83% 2.2 mph N3.5 kmh N 5.4 mph8.7 kmh 30.54 in1034.2 mb 0.00 in0.0 mm 0.00 in0.0 mm 0.00 in0.0 mm
10:15 AM 32.4°F0.2°C 27.5°F-2.5°C 82% 1.6 mph N2.6 kmh N 4.5 mph7.2 kmh 30.54 in1034.2 mb 0.00 in0.0 mm 0.00 in0.0 mm 0.00 in0.0 mm
10:30 AM 33.6°F0.9°C 27.8°F-2.3°C 79% 0.7 mph W1.1 kmh W 4.5 mph7.2 kmh 30.54 in1034.2 mb 0.00 in0.0 mm 0.00 in0.0 mm 0.00 in0.0 mm
10:45 AM 34.7°F1.5°C 28.2°F-2.1°C 77% 0.7 mph NW1.1 kmh NW 4.5 mph7.2 kmh 30.53 in1033.9 mb 0.00 in0.0 mm 0.00 in0.0 mm 0.00 in0.0 mm
11:00 AM 35.1°F1.7°C 28.0°F-2.2°C 75% 1.6 mph N2.6 kmh N 5.4 mph8.7 kmh 30.54 in1034.2 mb 0.00 in0.0 mm 0.00 in0.0 mm 0.00 in0.0 mm
11:15 AM 35.4°F1.9°C 28.0°F-2.2°C 74% 0.7 mph N1.1 kmh N 5.4 mph8.7 kmh 30.53 in1033.9 mb 0.00 in0.0 mm 0.00 in0.0 mm 0.00 in0.0 mm
11:30 AM 36.1°F2.3°C 28.3°F-2.1°C 73% 2.2 mph NNW3.5 kmh NNW 5.4 mph8.7 kmh 30.52 in1033.5 mb 0.00 in0.0 mm 0.00 in0.0 mm 0.00 in0.0 mm
11:45 AM 36.1°F2.3°C 28.0°F-2.2°C 72% 0.7 mph N1.1 kmh N 6.9 mph11.1 kmh 30.52 in1033.5 mb 0.00 in0.0 mm 0.00 in0.0 mm 0.00 in0.0 mm
12:00 PM 37.8°F3.2°C 29.2°F-1.6°C 71% 3.1 mph WNW5.0 kmh WNW 5.4 mph8.7 kmh 30.50 in1032.8 mb 0.00 in0.0 mm 0.00 in0.0 mm 0.00 in0.0 mm
12:15 PM 38.7°F3.7°C 29.4°F-1.4°C 69% Calm Calm 4.5 mph7.2 kmh 30.48 in1032.2 mb 0.00 in0.0 mm 0.00 in0.0 mm 0.00 in0.0 mm
12:30 PM 38.7°F3.7°C 28.3°F-2.1°C 66% Calm Calm 5.4 mph8.7 kmh 30.47 in1031.8 mb 0.00 in0.0 mm 0.00 in0.0 mm 0.00 in0.0 mm
12:45 PM 38.8°F3.8°C 28.5°F-1.9°C 66% 2.2 mph NW3.5 kmh NW 6.0 mph9.7 kmh 30.46 in1031.5 mb 0.00 in0.0 mm 0.00 in0.0 mm 0.00 in0.0 mm
01:00 PM 39.0°F3.9°C 28.6°F-1.9°C 66% 0.7 mph WSW1.1 kmh WSW 4.5 mph7.2 kmh 30.45 in1031.2 mb 0.00 in0.0 mm 0.00 in0.0 mm 0.00 in0.0 mm
01:15 PM 39.6°F4.2°C 28.8°F-1.8°C 65% 1.6 mph SW2.6 kmh SW 4.5 mph7.2 kmh 30.43 in1030.5 mb 0.00 in0.0 mm 0.00 in0.0 mm 0.00 in0.0 mm
01:30 PM 39.7°F4.3°C 28.6°F-1.9°C 64% 3.1 mph ENE5.0 kmh ENE 5.4 mph8.7 kmh 30.42 in1030.1 mb 0.00 in0.0 mm 0.00 in0.0 mm 0.00 in0.0 mm
01:45 PM 39.2°F4.0°C 27.7°F-2.4°C 63% 2.2 mph NE3.5 kmh NE 6.9 mph11.1 kmh 30.41 in1029.8 mb 0.00 in0.0 mm 0.00 in0.0 mm 0.00 in0.0 mm
02:00 PM 39.2°F4.0°C 27.7°F-2.4°C 63% 0.7 mph SSW1.1 kmh SSW 4.5 mph7.2 kmh 30.41 in1029.8 mb 0.00 in0.0 mm 0.00 in0.0 mm 0.00 in0.0 mm
02:15 PM 39.2°F4.0°C 27.3°F-2.6°C 62% 2.2 mph SSW3.5 kmh SSW 5.4 mph8.7 kmh 30.40 in1029.5 mb 0.00 in0.0 mm 0.00 in0.0 mm 0.00 in0.0 mm
02:30 PM 39.0°F3.9°C 27.9°F-2.3°C 64% 3.1 mph SSE5.0 kmh SSE 4.5 mph7.2 kmh 30.40 in1029.5 mb 0.00 in0.0 mm 0.00 in0.0 mm 0.00 in0.0 mm
02:45 PM 39.2°F4.0°C 28.1°F-2.2°C 64% 1.6 mph SSW2.6 kmh SSW 3.8 mph6.1 kmh 30.40 in1029.5 mb 0.00 in0.0 mm 0.00 in0.0 mm 0.00 in0.0 mm
03:00 PM 39.0°F3.9°C 28.3°F-2.1°C 65% 0.7 mph S1.1 kmh S 6.9 mph11.1 kmh 30.38 in1028.8 mb 0.00 in0.0 mm 0.00 in0.0 mm 0.00 in0.0 mm
03:15 PM 38.5°F3.6°C 27.8°F-2.3°C 65% 3.1 mph S5.0 kmh S 6.0 mph9.7 kmh 30.39 in1029.1 mb 0.00 in0.0 mm 0.00 in0.0 mm 0.00 in0.0 mm
03:30 PM 38.7°F3.7°C 27.9°F-2.3°C 65% Calm Calm 5.4 mph8.7 kmh 30.39 in1029.1 mb 0.00 in0.0 mm 0.00 in0.0 mm 0.00 in0.0 mm
03:45 PM 38.5°F3.6°C 27.4°F-2.6°C 64% 0.7 mph SW1.1 kmh SW 4.5 mph7.2 kmh 30.38 in1028.8 mb 0.00 in0.0 mm 0.00 in0.0 mm 0.00 in0.0 mm
04:00 PM 38.3°F3.5°C 26.8°F-2.9°C 63% 0.7 mph SE1.1 kmh SE 5.4 mph8.7 kmh 30.38 in1028.8 mb 0.00 in0.0 mm 0.00 in0.0 mm 0.00 in0.0 mm
04:15 PM 38.3°F3.5°C 26.8°F-2.9°C 63% Calm Calm 2.2 mph3.5 kmh 30.38 in1028.8 mb 0.00 in0.0 mm 0.00 in0.0 mm 0.00 in0.0 mm
04:30 PM 38.8°F3.8°C 27.3°F-2.6°C 63% 0.7 mph SSE1.1 kmh SSE 3.8 mph6.1 kmh 30.39 in1029.1 mb 0.00 in0.0 mm 0.00 in0.0 mm 0.00 in0.0 mm
04:45 PM 39.2°F4.0°C 27.3°F-2.6°C 62% 1.6 mph S2.6 kmh S 3.1 mph5.0 kmh 30.38 in1028.8 mb 0.00 in0.0 mm 0.00 in0.0 mm 0.00 in0.0 mm
05:00 PM 37.9°F3.3°C 26.5°F-3.1°C 63% 0.7 mph SE1.1 kmh SE 3.8 mph6.1 kmh 30.37 in1028.4 mb 0.00 in0.0 mm 0.00 in0.0 mm 0.00 in0.0 mm
05:15 PM 36.9°F2.7°C 25.8°F-3.4°C 64% 1.6 mph SE2.6 kmh SE 4.5 mph7.2 kmh 30.36 in1028.1 mb 0.00 in0.0 mm 0.00 in0.0 mm 0.00 in0.0 mm
05:30 PM 35.6°F2.0°C 25.7°F-3.5°C 67% 0.7 mph SE1.1 kmh SE 3.1 mph5.0 kmh 30.36 in1028.1 mb 0.00 in0.0 mm 0.00 in0.0 mm 0.00 in0.0 mm
05:45 PM 34.3°F1.3°C 25.2°F-3.8°C 69% Calm Calm 2.2 mph3.5 kmh 30.35 in1027.8 mb 0.00 in0.0 mm 0.00 in0.0 mm 0.00 in0.0 mm
06:00 PM 33.3°F0.7°C 24.6°F-4.1°C 70% Calm Calm 1.6 mph2.6 kmh 30.34 in1027.4 mb 0.00 in0.0 mm 0.00 in0.0 mm 0.00 in0.0 mm
06:15 PM 32.4°F0.2°C 24.4°F-4.2°C 72% 0.7 mph ESE1.1 kmh ESE 1.6 mph2.6 kmh 30.34 in1027.4 mb 0.00 in0.0 mm 0.00 in0.0 mm 0.00 in0.0 mm
06:30 PM 31.3°F-0.4°C 24.0°F-4.4°C 74% Calm Calm 3.1 mph5.0 kmh 30.35 in1027.8 mb 0.00 in0.0 mm 0.00 in0.0 mm 0.00 in0.0 mm
06:45 PM 30.4°F-0.9°C 23.7°F-4.6°C 76% 1.6 mph SSE2.6 kmh SSE 3.1 mph5.0 kmh 30.32 in1026.8 mb 0.00 in0.0 mm 0.00 in0.0 mm 0.00 in0.0 mm
07:00 PM 29.7°F-1.3°C 23.4°F-4.8°C 77% Calm Calm 1.6 mph2.6 kmh 30.32 in1026.8 mb 0.00 in0.0 mm 0.00 in0.0 mm 0.00 in0.0 mm
07:15 PM 29.1°F-1.6°C 23.1°F-4.9°C 78% Calm Calm 2.2 mph3.5 kmh 30.32 in1026.8 mb 0.00 in0.0 mm 0.00 in0.0 mm 0.00 in0.0 mm
07:30 PM 28.8°F-1.8°C 23.4°F-4.8°C 80% Calm Calm 3.1 mph5.0 kmh 30.29 in1025.7 mb 0.00 in0.0 mm 0.00 in0.0 mm 0.00 in0.0 mm
07:45 PM 28.4°F-2.0°C 23.0°F-5.0°C 80% 1.6 mph SE2.6 kmh SE 6.0 mph9.7 kmh 30.28 in1025.4 mb 0.00 in0.0 mm 0.00 in0.0 mm 0.00 in0.0 mm
08:00 PM 28.4°F-2.0°C 23.3°F-4.8°C 81% Calm Calm 2.2 mph3.5 kmh 30.29 in1025.7 mb 0.00 in0.0 mm 0.00 in0.0 mm 0.00 in0.0 mm
08:15 PM 28.4°F-2.0°C 23.3°F-4.8°C 81% Calm Calm 3.1 mph5.0 kmh 30.29 in1025.7 mb 0.00 in0.0 mm 0.00 in0.0 mm 0.00 in0.0 mm
08:30 PM 28.0°F-2.2°C 23.3°F-4.8°C 82% Calm Calm 1.6 mph2.6 kmh 30.29 in1025.7 mb 0.00 in0.0 mm 0.00 in0.0 mm 0.00 in0.0 mm
08:45 PM 27.7°F-2.4°C 23.2°F-4.9°C 83% Calm Calm 1.6 mph2.6 kmh 30.29 in1025.7 mb 0.00 in0.0 mm 0.00 in0.0 mm 0.00 in0.0 mm
09:00 PM 27.3°F-2.6°C 22.9°F-5.1°C 83% 0.7 mph S1.1 kmh S 1.6 mph2.6 kmh 30.28 in1025.4 mb 0.00 in0.0 mm 0.00 in0.0 mm 0.00 in0.0 mm
09:15 PM 27.3°F-2.6°C 23.2°F-4.9°C 84% 1.6 mph SE2.6 kmh SE 3.1 mph5.0 kmh 30.27 in1025.1 mb 0.00 in0.0 mm 0.00 in0.0 mm 0.00 in0.0 mm
09:30 PM 27.1°F-2.7°C 23.3°F-4.8°C 85% Calm Calm 3.1 mph5.0 kmh 30.26 in1024.7 mb 0.00 in0.0 mm 0.00 in0.0 mm 0.00 in0.0 mm
09:45 PM 26.8°F-2.9°C 22.9°F-5.1°C 85% Calm Calm 1.6 mph2.6 kmh 30.26 in1024.7 mb 0.00 in0.0 mm 0.00 in0.0 mm 0.00 in0.0 mm
10:00 PM 26.8°F-2.9°C 22.9°F-5.1°C 85% 0.7 mph SE1.1 kmh SE 1.6 mph2.6 kmh 30.25 in1024.4 mb 0.00 in0.0 mm 0.00 in0.0 mm 0.00 in0.0 mm
10:15 PM 27.0°F-2.8°C 23.4°F-4.8°C 86% 0.7 mph S1.1 kmh S 2.2 mph3.5 kmh 30.25 in1024.4 mb 0.00 in0.0 mm 0.00 in0.0 mm 0.00 in0.0 mm
10:30 PM 27.0°F-2.8°C 23.4°F-4.8°C 86% 1.6 mph S2.6 kmh S 3.8 mph6.1 kmh 30.24 in1024.0 mb 0.00 in0.0 mm 0.00 in0.0 mm 0.00 in0.0 mm
10:45 PM 27.1°F-2.7°C 23.5°F-4.7°C 86% 0.7 mph SSE1.1 kmh SSE 3.1 mph5.0 kmh 30.23 in1023.7 mb 0.00 in0.0 mm 0.00 in0.0 mm 0.00 in0.0 mm
11:00 PM 27.0°F-2.8°C 23.4°F-4.8°C 86% 1.6 mph S2.6 kmh S 3.1 mph5.0 kmh 30.23 in1023.7 mb 0.00 in0.0 mm 0.00 in0.0 mm 0.00 in0.0 mm
11:15 PM 27.0°F-2.8°C 23.4°F-4.8°C 86% 1.6 mph S2.6 kmh S 5.4 mph8.7 kmh 30.22 in1023.4 mb 0.00 in0.0 mm 0.00 in0.0 mm 0.00 in0.0 mm
11:30 PM 27.3°F-2.6°C 24.0°F-4.4°C 87% 3.1 mph S5.0 kmh S 5.4 mph8.7 kmh 30.22 in1023.4 mb 0.00 in0.0 mm 0.00 in0.0 mm 0.00 in0.0 mm
11:45 PM 27.7°F-2.4°C 24.3°F-4.3°C 87% 1.6 mph SSE2.6 kmh SSE 6.0 mph9.7 kmh 30.21 in1023.0 mb 0.00 in0.0 mm 0.00 in0.0 mm 0.00 in0.0 mm